Time;durP1;ratioP1;P1;durP2;ratioP2;P2;SDS_P1;SDS_P2;PMS_P1;PMS_P2;Temp;Humidity;BMP_temperature;BMP_pressure;BME280_temperature;BME280_humidity;BME280_pressure;Samples;Min_cycle;Max_cycle;Signal;HPM_P1;HPM_P2
2023/05/02 00:00:46;;;;;;;12.57;5.93;;;;;;;;;;5075734;28;20501;-73
2023/05/02 00:03:12;;;;;;;12.57;6.13;;;;;;;;;;5078095;28;20047;-72
2023/05/02 00:05:38;;;;;;;15.10;6.38;;;;;;;;;;5079965;28;20053;-73
2023/05/02 00:08:03;;;;;;;18.00;5.95;;;;;;;;;;5085133;28;20445;-72
2023/05/02 00:10:29;;;;;;;15.23;5.85;;;;;;;;;;5073691;28;21397;-73
2023/05/02 00:12:54;;;;;;;15.00;6.15;;;;;;;;;;5082888;28;20062;-73
2023/05/02 00:15:20;;;;;;;13.85;5.78;;;;;;;;;;5069414;28;20086;-72
2023/05/02 00:17:45;;;;;;;10.63;5.60;;;;;;;;;;5077803;28;20024;-73
2023/05/02 00:20:11;;;;;;;12.20;5.53;;;;;;;;;;5085013;28;20075;-73
2023/05/02 00:22:37;;;;;;;18.20;6.60;;;;;;;;;;5070468;28;20162;-72
2023/05/02 00:25:04;;;;;;;14.15;5.95;;;;;;;;;;5065319;28;20058;-73
2023/05/02 00:27:30;;;;;;;14.82;6.20;;;;;;;;;;5087260;28;20132;-73
2023/05/02 00:29:57;;;;;;;14.02;6.57;;;;;;;;;;5094312;28;20029;-73
2023/05/02 00:32:22;;;;;;;14.75;6.13;;;;;;;;;;5073191;28;20063;-73
2023/05/02 00:34:47;;;;;;;16.08;7.00;;;;;;;;;;5085560;28;20050;-73
2023/05/02 00:37:13;;;;;;;15.55;7.22;;;;;;;;;;5084231;28;20060;-73
2023/05/02 00:39:38;;;;;;;13.23;5.97;;;;;;;;;;5071075;28;20103;-73
2023/05/02 00:42:04;;;;;;;18.70;6.55;;;;;;;;;;5084199;28;20032;-73
2023/05/02 00:44:30;;;;;;;18.40;7.75;;;;;;;;;;5084564;28;20034;-73
2023/05/02 00:46:56;;;;;;;20.48;7.07;;;;;;;;;;5087026;28;20024;-73
2023/05/02 00:49:21;;;;;;;15.68;6.65;;;;;;;;;;5079031;28;20017;-73
2023/05/02 00:51:47;;;;;;;16.00;7.10;;;;;;;;;;5081551;28;20040;-73
2023/05/02 00:54:13;;;;;;;14.88;6.90;;;;;;;;;;5086404;28;20439;-73
2023/05/02 00:56:38;;;;;;;19.00;7.55;;;;;;;;;;5077844;28;20035;-73
2023/05/02 00:59:06;;;;;;;18.13;7.15;;;;;;;;;;5073166;28;20048;-73
2023/05/02 01:01:50;;;;;;;15.10;6.60;;;;;;;;;;5072445;28;20020;-73
2023/05/02 01:04:46;;;;;;;17.73;6.38;;;;;;;;;;5086653;28;20058;-73
2023/05/02 01:07:15;;;;;;;13.80;6.07;;;;;;;;;;5085454;28;20071;-73
2023/05/02 01:09:59;;;;;;;12.90;6.40;;;;;;;;;;5084239;28;20047;-73
2023/05/02 01:12:31;;;;;;;14.10;6.05;;;;;;;;;;5078974;28;20036;-72
2023/05/02 01:14:58;;;;;;;13.98;6.53;;;;;;;;;;5087398;28;20162;-73
2023/05/02 01:17:29;;;;;;;13.05;6.13;;;;;;;;;;5086644;28;20113;-72
2023/05/02 01:20:01;;;;;;;14.60;6.53;;;;;;;;;;5087582;28;20032;-73
2023/05/02 01:22:29;;;;;;;14.63;6.47;;;;;;;;;;5086937;28;20493;-72
2023/05/02 01:25:16;;;;;;;15.70;6.55;;;;;;;;;;5087121;28;20044;-73
2023/05/02 01:27:59;;;;;;;14.45;6.68;;;;;;;;;;5075034;28;20508;-73
2023/05/02 01:30:26;;;;;;;;;;;;;;;;;;5087236;28;20709;-73
2023/05/02 01:32:54;;;;;;;14.48;6.78;;;;;;;;;;5087045;28;19947;-73
2023/05/02 01:35:21;;;;;;;16.80;6.97;;;;;;;;;;5083194;28;20108;-73
2023/05/02 01:37:48;;;;;;;16.95;6.65;;;;;;;;;;5070824;28;20100;-72
2023/05/02 01:40:19;;;;;;;18.63;7.07;;;;;;;;;;5076907;28;20045;-73
2023/05/02 01:42:48;;;;;;;17.85;7.07;;;;;;;;;;5075474;28;20040;-73
2023/05/02 01:45:15;;;;;;;15.57;6.25;;;;;;;;;;5073855;28;20137;-73
2023/05/02 01:47:43;;;;;;;15.23;6.85;;;;;;;;;;5082556;28;20031;-72
2023/05/02 01:50:12;;;;;;;17.85;6.88;;;;;;;;;;5083081;28;20081;-73
2023/05/02 01:52:39;;;;;;;17.70;7.53;;;;;;;;;;5097470;28;20020;-72
2023/05/02 01:55:09;;;;;;;13.02;6.97;;;;;;;;;;5091631;28;20070;-73
2023/05/02 01:57:38;;;;;;;16.70;7.38;;;;;;;;;;5085412;28;20043;-73
2023/05/02 02:00:05;;;;;;;18.08;6.90;;;;;;;;;;5084402;28;20082;-73
2023/05/02 02:02:32;;;;;;;20.05;7.93;;;;;;;;;;5076151;28;20147;-73
2023/05/02 02:04:58;;;;;;;16.40;7.03;;;;;;;;;;5085163;28;20028;-73
2023/05/02 02:07:24;;;;;;;22.77;8.00;;;;;;;;;;5086489;28;20081;-73
2023/05/02 02:09:50;;;;;;;16.85;7.88;;;;;;;;;;5085870;28;20039;-73
2023/05/02 02:12:25;;;;;;;17.90;7.38;;;;;;;;;;5086041;28;20043;-73
2023/05/02 02:15:09;;;;;;;19.67;7.22;;;;;;;;;;5083231;28;20043;-73
2023/05/02 02:17:46;;;;;;;19.85;7.55;;;;;;;;;;5076322;28;20700;-73
2023/05/02 02:20:14;;;;;;;16.75;6.88;;;;;;;;;;5081673;28;20062;-73
2023/05/02 02:22:42;;;;;;;18.20;6.93;;;;;;;;;;5088406;28;20659;-73
2023/05/02 02:25:15;;;;;;;16.77;7.32;;;;;;;;;;5087327;28;20063;-73
2023/05/02 02:27:40;;;;;;;20.42;7.40;;;;;;;;;;5085537;28;20036;-73
2023/05/02 02:30:07;;;;;;;18.23;8.30;;;;;;;;;;5086142;28;20513;-73
2023/05/02 02:32:33;;;;;;;15.60;6.90;;;;;;;;;;5085575;28;20032;-73
2023/05/02 02:34:59;;;;;;;14.73;7.45;;;;;;;;;;5085869;28;20032;-73
2023/05/02 02:37:32;;;;;;;14.48;7.50;;;;;;;;;;5085770;28;20516;-73
2023/05/02 02:40:25;;;;;;;18.77;7.60;;;;;;;;;;5070443;28;20064;-73
2023/05/02 02:43:05;;;;;;;15.10;6.57;;;;;;;;;;5072120;28;20047;-73
2023/05/02 02:45:39;;;;;;;17.73;7.80;;;;;;;;;;5083644;28;20127;-73
2023/05/02 02:48:26;;;;;;;21.27;8.10;;;;;;;;;;5084389;28;20060;-73
2023/05/02 02:51:23;;;;;;;17.13;7.93;;;;;;;;;;5075232;28;20056;-73
2023/05/02 02:54:04;;;;;;;18.40;7.75;;;;;;;;;;5071757;28;20032;-73
2023/05/02 02:56:39;;;;;;;17.92;8.07;;;;;;;;;;5084294;28;20032;-73
2023/05/02 02:59:13;;;;;;;18.92;8.32;;;;;;;;;;5083962;28;20581;-73
2023/05/02 03:01:42;;;;;;;25.45;8.55;;;;;;;;;;5066713;28;20031;-73
2023/05/02 03:04:09;;;;;;;17.95;7.85;;;;;;;;;;5085375;28;20036;-73
2023/05/02 03:06:35;;;;;;;20.60;7.90;;;;;;;;;;5072874;28;20050;-73
2023/05/02 03:09:01;;;;;;;19.48;7.88;;;;;;;;;;5076140;28;20116;-72
2023/05/02 03:11:26;;;;;;;20.65;7.97;;;;;;;;;;5079885;28;20085;-73
2023/05/02 03:13:52;;;;;;;21.52;8.30;;;;;;;;;;5089285;28;20095;-73
2023/05/02 03:16:37;;;;;;;21.23;8.40;;;;;;;;;;5096658;28;20031;-73
2023/05/02 03:19:04;;;;;;;18.58;7.57;;;;;;;;;;5089895;28;20619;-73
2023/05/02 03:21:30;;;;;;;22.17;7.40;;;;;;;;;;5085874;28;20031;-73
2023/05/02 03:23:59;;;;;;;19.75;8.38;;;;;;;;;;5082967;28;20480;-73
2023/05/02 03:26:25;;;;;;;20.95;8.93;;;;;;;;;;5077254;28;20111;-72
2023/05/02 03:28:51;;;;;;;21.13;9.05;;;;;;;;;;5079865;28;20189;-73
2023/05/02 03:31:16;;;;;;;18.33;8.00;;;;;;;;;;5085611;28;20043;-73
2023/05/02 03:33:42;;;;;;;19.63;8.38;;;;;;;;;;5081854;28;20683;-73
2023/05/02 03:36:07;;;;;;;19.75;8.27;;;;;;;;;;5077935;28;20036;-73
2023/05/02 03:38:33;;;;;;;20.23;8.13;;;;;;;;;;5076944;28;20044;-73
2023/05/02 03:40:58;;;;;;;20.35;7.97;;;;;;;;;;5083673;28;20048;-73
2023/05/02 03:43:24;;;;;;;15.80;7.30;;;;;;;;;;5085259;28;20028;-73
2023/05/02 03:45:49;;;;;;;22.48;8.55;;;;;;;;;;5084394;28;20476;-73
2023/05/02 03:48:14;;;;;;;21.27;8.35;;;;;;;;;;5083374;28;20480;-73
2023/05/02 03:50:40;;;;;;;23.00;8.75;;;;;;;;;;5084762;28;20063;-73
2023/05/02 03:53:07;;;;;;;25.08;9.45;;;;;;;;;;5083409;28;20537;-73
2023/05/02 03:55:32;;;;;;;32.60;11.38;;;;;;;;;;5083870;28;20024;-73
2023/05/02 03:57:58;;;;;;;28.52;11.63;;;;;;;;;;5083693;28;20123;-73
2023/05/02 04:00:23;;;;;;;35.70;13.48;;;;;;;;;;5082042;28;20436;-73
2023/05/02 04:02:49;;;;;;;46.33;14.93;;;;;;;;;;5063031;28;20039;-73
2023/05/02 04:05:14;;;;;;;53.45;16.95;;;;;;;;;;5084652;28;20040;-73
2023/05/02 04:07:40;;;;;;;56.40;16.45;;;;;;;;;;5092425;28;20024;-73
2023/05/02 04:10:06;;;;;;;50.83;16.20;;;;;;;;;;5082365;28;20058;-73
2023/05/02 04:12:31;;;;;;;51.35;17.58;;;;;;;;;;5078750;28;20063;-73
2023/05/02 04:14:57;;;;;;;53.28;17.13;;;;;;;;;;5076597;28;20119;-73
2023/05/02 04:17:22;;;;;;;54.42;16.50;;;;;;;;;;5076694;28;20036;-73
2023/05/02 04:19:48;;;;;;;53.95;15.57;;;;;;;;;;5087049;28;20019;-73
2023/05/02 04:22:13;;;;;;;47.05;15.65;;;;;;;;;;5088543;28;20257;-73
2023/05/02 04:24:38;;;;;;;49.25;16.33;;;;;;;;;;5085529;28;20416;-72
2023/05/02 04:27:04;;;;;;;44.25;15.70;;;;;;;;;;5082071;28;20067;-72
2023/05/02 04:29:29;;;;;;;44.45;15.52;;;;;;;;;;5086918;28;20039;-73
2023/05/02 04:31:55;;;;;;;51.45;16.77;;;;;;;;;;5086826;28;20107;-73
2023/05/02 04:34:20;;;;;;;47.67;16.73;;;;;;;;;;5089043;28;20047;-73
2023/05/02 04:36:46;;;;;;;55.10;17.38;;;;;;;;;;5090312;28;20032;-73
2023/05/02 04:39:11;;;;;;;46.13;16.10;;;;;;;;;;5086545;28;20037;-73
2023/05/02 04:41:36;;;;;;;48.22;16.00;;;;;;;;;;5088799;28;20032;-73
2023/05/02 04:44:02;;;;;;;51.08;17.17;;;;;;;;;;5087707;28;20024;-73
2023/05/02 04:46:28;;;;;;;53.40;15.30;;;;;;;;;;5086145;28;20032;-73
2023/05/02 04:48:53;;;;;;;49.88;14.43;;;;;;;;;;5085376;28;20039;-73
2023/05/02 04:51:18;;;;;;;52.78;15.43;;;;;;;;;;5087478;28;20040;-73
2023/05/02 04:53:44;;;;;;;47.45;15.40;;;;;;;;;;5087501;28;20089;-72
2023/05/02 04:56:10;;;;;;;43.50;14.45;;;;;;;;;;5085962;28;20093;-73
2023/05/02 04:58:35;;;;;;;46.53;13.65;;;;;;;;;;5087756;28;20040;-73
2023/05/02 05:01:01;;;;;;;46.97;14.40;;;;;;;;;;5085869;28;20032;-73
2023/05/02 05:03:29;;;;;;;43.88;13.32;;;;;;;;;;5087217;28;20091;-73
2023/05/02 05:05:55;;;;;;;44.78;14.63;;;;;;;;;;5087352;28;20109;-73
2023/05/02 05:08:20;;;;;;;48.05;14.65;;;;;;;;;;5088157;28;20028;-73
2023/05/02 05:10:45;;;;;;;41.97;14.63;;;;;;;;;;5072521;28;20809;-73
2023/05/02 05:13:12;;;;;;;44.30;13.45;;;;;;;;;;5084292;28;20032;-73
2023/05/02 05:15:38;;;;;;;51.25;14.02;;;;;;;;;;5084265;28;20032;-73
2023/05/02 05:18:03;;;;;;;48.97;15.90;;;;;;;;;;5076305;28;20042;-73
2023/05/02 05:20:28;;;;;;;43.13;14.38;;;;;;;;;;5076886;28;20508;-73
2023/05/02 05:22:54;;;;;;;43.20;14.82;;;;;;;;;;5085282;28;20030;-73
2023/05/02 05:25:20;;;;;;;50.60;14.95;;;;;;;;;;5083239;28;20024;-73
2023/05/02 05:27:45;;;;;;;42.78;14.48;;;;;;;;;;5081260;28;20082;-73
2023/05/02 05:30:11;;;;;;;49.47;16.13;;;;;;;;;;5086460;28;20377;-73
2023/05/02 05:32:36;;;;;;;41.58;13.85;;;;;;;;;;5086307;28;20077;-73
2023/05/02 05:35:02;;;;;;;38.35;12.43;;;;;;;;;;5087382;28;20058;-73
2023/05/02 05:37:28;;;;;;;39.20;14.48;;;;;;;;;;5085026;28;20092;-73
2023/05/02 05:39:53;;;;;;;37.17;13.65;;;;;;;;;;5073083;28;20055;-73
2023/05/02 05:42:18;;;;;;;33.10;12.60;;;;;;;;;;5086955;28;20119;-73
2023/05/02 05:44:44;;;;;;;40.00;14.65;;;;;;;;;;5086532;28;20054;-73
2023/05/02 05:47:09;;;;;;;33.22;12.98;;;;;;;;;;5087064;28;20569;-73
2023/05/02 05:49:35;;;;;;;36.80;13.02;;;;;;;;;;5086863;28;20742;-73
2023/05/02 05:52:01;;;;;;;38.78;12.68;;;;;;;;;;5095692;28;20036;-73
2023/05/02 05:54:26;;;;;;;34.17;12.40;;;;;;;;;;5066339;28;20653;-73
2023/05/02 05:56:52;;;;;;;30.88;11.32;;;;;;;;;;5085315;28;20564;-73
2023/05/02 05:59:17;;;;;;;32.40;11.05;;;;;;;;;;5086430;28;20051;-73
2023/05/02 06:01:43;;;;;;;41.10;13.30;;;;;;;;;;5093614;28;20028;-73
2023/05/02 06:04:08;;;;;;;29.38;11.07;;;;;;;;;;5089376;28;20035;-73
2023/05/02 06:06:34;;;;;;;27.88;9.68;;;;;;;;;;5074321;28;20525;-73
2023/05/02 06:08:59;;;;;;;32.08;10.20;;;;;;;;;;5086990;28;20059;-73
2023/05/02 06:11:25;;;;;;;26.45;9.25;;;;;;;;;;5086514;28;20036;-73
2023/05/02 06:13:51;;;;;;;25.52;8.85;;;;;;;;;;5085902;28;20051;-73
2023/05/02 06:16:17;;;;;;;30.50;11.20;;;;;;;;;;5083382;28;20044;-73
2023/05/02 06:18:46;;;;;;;28.42;10.25;;;;;;;;;;5072465;28;20089;-73
2023/05/02 06:21:11;;;;;;;28.52;9.93;;;;;;;;;;5079875;28;20031;-73
2023/05/02 06:23:37;;;;;;;24.98;9.50;;;;;;;;;;5081073;28;20034;-73
2023/05/02 06:26:03;;;;;;;23.90;9.68;;;;;;;;;;5079630;28;20046;-73
2023/05/02 06:28:29;;;;;;;27.65;10.10;;;;;;;;;;5074794;28;20426;-73
2023/05/02 06:31:02;;;;;;;22.60;8.38;;;;;;;;;;5079755;28;20036;-73
2023/05/02 06:33:29;;;;;;;24.35;9.88;;;;;;;;;;5082505;28;20020;-73
2023/05/02 06:35:54;;;;;;;23.65;8.63;;;;;;;;;;5083571;28;20078;-72
2023/05/02 06:38:20;;;;;;;21.05;8.90;;;;;;;;;;5076111;28;20177;-73
2023/05/02 06:40:46;;;;;;;19.38;8.57;;;;;;;;;;5072596;28;20532;-73
2023/05/02 06:43:12;;;;;;;20.58;8.63;;;;;;;;;;5064424;28;20166;-73
2023/05/02 06:45:38;;;;;;;19.83;8.32;;;;;;;;;;5074987;28;20035;-71
2023/05/02 06:48:03;;;;;;;21.88;8.20;;;;;;;;;;5077270;28;20044;-69
2023/05/02 06:50:29;;;;;;;20.02;7.65;;;;;;;;;;5083237;28;20463;-69
2023/05/02 06:52:54;;;;;;;26.85;8.30;;;;;;;;;;5085684;28;20030;-70
2023/05/02 06:55:20;;;;;;;17.70;7.65;;;;;;;;;;5084791;28;20114;-70
2023/05/02 06:57:47;;;;;;;20.42;8.68;;;;;;;;;;5078703;28;20043;-70
2023/05/02 07:00:13;;;;;;;14.30;6.72;;;;;;;;;;5078050;28;20056;-70
2023/05/02 07:02:39;;;;;;;16.73;7.35;;;;;;;;;;5084676;28;20033;-69
2023/05/02 07:05:05;;;;;;;18.40;7.20;;;;;;;;;;5084549;28;20023;-70
2023/05/02 07:07:30;;;;;;;14.18;6.13;;;;;;;;;;5085492;28;20397;-70
2023/05/02 07:09:55;;;;;;;19.70;6.20;;;;;;;;;;5069460;28;20032;-70
2023/05/02 07:12:21;;;;;;;14.32;5.63;;;;;;;;;;5083929;28;20123;-70
2023/05/02 07:14:46;;;;;;;11.38;5.65;;;;;;;;;;5084650;28;20028;-70
2023/05/02 07:17:11;;;;;;;18.55;5.95;;;;;;;;;;5085344;28;20024;-70
2023/05/02 07:19:37;;;;;;;12.18;5.55;;;;;;;;;;5085367;28;20441;-70
2023/05/02 07:22:02;;;;;;;14.63;6.13;;;;;;;;;;5077960;28;20459;-70
2023/05/02 07:24:28;;;;;;;11.38;5.53;;;;;;;;;;5086185;28;20036;-69
2023/05/02 07:26:53;;;;;;;13.65;5.60;;;;;;;;;;5095849;28;20040;-70
2023/05/02 07:29:19;;;;;;;14.05;5.47;;;;;;;;;;5084635;28;20040;-70
2023/05/02 07:31:44;;;;;;;12.20;5.65;;;;;;;;;;5085571;28;20031;-70
2023/05/02 07:34:09;;;;;;;10.63;4.68;;;;;;;;;;5085818;28;20056;-70
2023/05/02 07:36:35;;;;;;;11.20;4.63;;;;;;;;;;5079900;28;20036;-71
2023/05/02 07:39:00;;;;;;;8.43;4.53;;;;;;;;;;5070812;28;20063;-70
2023/05/02 07:41:25;;;;;;;14.50;5.47;;;;;;;;;;5074233;28;20115;-70
2023/05/02 07:43:51;;;;;;;14.90;5.85;;;;;;;;;;5082114;28;20052;-70
2023/05/02 07:46:16;;;;;;;14.75;5.78;;;;;;;;;;5082541;28;20073;-70
2023/05/02 07:48:41;;;;;;;13.15;5.43;;;;;;;;;;5076514;28;20029;-70
2023/05/02 07:51:09;;;;;;;28.42;6.00;;;;;;;;;;5085044;28;20028;-70
2023/05/02 07:53:34;;;;;;;15.25;5.15;;;;;;;;;;5085063;28;20032;-70
2023/05/02 07:56:00;;;;;;;9.50;4.68;;;;;;;;;;5087129;28;20024;-70
2023/05/02 07:58:26;;;;;;;13.25;6.15;;;;;;;;;;5086813;28;20207;-70
2023/05/02 08:00:51;;;;;;;10.93;5.13;;;;;;;;;;5086741;28;20408;-70
2023/05/02 08:03:17;;;;;;;10.15;5.55;;;;;;;;;;5075118;28;20720;-70
2023/05/02 08:05:42;;;;;;;15.48;5.68;;;;;;;;;;5075196;28;20025;-70
2023/05/02 08:08:07;;;;;;;10.40;5.25;;;;;;;;;;5080030;28;20017;-70
2023/05/02 08:10:33;;;;;;;12.00;4.78;;;;;;;;;;5072382;28;20430;-70
2023/05/02 08:12:58;;;;;;;12.55;4.93;;;;;;;;;;5074587;28;20106;-70
2023/05/02 08:15:23;;;;;;;12.10;5.05;;;;;;;;;;5088129;28;20028;-70
2023/05/02 08:17:50;;;;;;;9.40;4.63;;;;;;;;;;5088150;28;20036;-70
2023/05/02 08:20:15;;;;;;;8.10;4.95;;;;;;;;;;5087664;28;20024;-70
2023/05/02 08:22:41;;;;;;;9.13;5.03;;;;;;;;;;5088070;28;20043;-70
2023/05/02 08:25:06;;;;;;;13.02;6.03;;;;;;;;;;5087684;28;20077;-70
2023/05/02 08:27:34;;;;;;;9.48;4.80;;;;;;;;;;5086528;28;20028;-70
2023/05/02 08:29:59;;;;;;;11.40;4.90;;;;;;;;;;5087983;28;20059;-70
2023/05/02 08:32:25;;;;;;;10.23;4.88;;;;;;;;;;5087977;28;20509;-70
2023/05/02 08:34:55;;;;;;;10.35;4.78;;;;;;;;;;5087926;28;20079;-70
2023/05/02 08:37:20;;;;;;;9.13;4.55;;;;;;;;;;5083051;28;20032;-70
2023/05/02 08:39:45;;;;;;;9.50;4.57;;;;;;;;;;5081409;28;20039;-70
2023/05/02 08:42:11;;;;;;;10.68;5.10;;;;;;;;;;5088153;28;20031;-70
2023/05/02 08:44:36;;;;;;;11.07;4.85;;;;;;;;;;5082695;28;20220;-70
2023/05/02 08:47:03;;;;;;;10.68;5.22;;;;;;;;;;5088167;28;20041;-70
2023/05/02 08:49:31;;;;;;;8.85;5.15;;;;;;;;;;5092104;28;20020;-71
2023/05/02 08:51:58;;;;;;;11.50;5.25;;;;;;;;;;5088712;28;20413;-69
2023/05/02 08:54:25;;;;;;;12.40;5.78;;;;;;;;;;5069746;28;20025;-69
2023/05/02 08:56:52;;;;;;;9.65;5.03;;;;;;;;;;5072440;28;20028;-69
2023/05/02 08:59:18;;;;;;;15.52;5.70;;;;;;;;;;5079246;28;20040;-69
2023/05/02 09:01:47;;;;;;;10.52;5.30;;;;;;;;;;5087428;28;20044;-70
2023/05/02 09:04:13;;;;;;;10.57;5.45;;;;;;;;;;5085958;28;20029;-71
2023/05/02 09:06:38;;;;;;;10.75;4.90;;;;;;;;;;5086852;28;20032;-71
2023/05/02 09:09:04;;;;;;;10.10;5.93;;;;;;;;;;5087378;28;20036;-71
2023/05/02 09:11:30;;;;;;;10.68;5.32;;;;;;;;;;5085849;28;20108;-71
2023/05/02 09:13:57;;;;;;;9.57;5.18;;;;;;;;;;5080410;28;20027;-71
2023/05/02 09:16:24;;;;;;;8.55;4.38;;;;;;;;;;5079721;28;20441;-71
2023/05/02 09:18:57;;;;;;;11.35;5.40;;;;;;;;;;5098857;28;20589;-71
2023/05/02 09:21:26;;;;;;;16.60;5.07;;;;;;;;;;5074316;28;20139;-71
2023/05/02 09:23:57;;;;;;;9.65;5.13;;;;;;;;;;5083082;28;20412;-71
2023/05/02 09:26:32;;;;;;;9.45;5.05;;;;;;;;;;5079609;28;20619;-71
2023/05/02 09:28:59;;;;;;;9.48;4.55;;;;;;;;;;5073974;28;20043;-71
2023/05/02 09:31:35;;;;;;;10.25;5.00;;;;;;;;;;5085568;28;20035;-71
2023/05/02 09:34:15;;;;;;;11.95;5.05;;;;;;;;;;5085524;28;20035;-71
2023/05/02 09:36:43;;;;;;;9.45;5.10;;;;;;;;;;5085802;28;20029;-71
2023/05/02 09:39:12;;;;;;;11.98;5.80;;;;;;;;;;5082784;28;20036;-71
2023/05/02 09:41:45;;;;;;;9.15;5.30;;;;;;;;;;5073767;28;20730;-71
2023/05/02 09:44:11;;;;;;;;;;;;;;;;;;5087213;28;20110;-71
2023/05/02 09:46:46;;;;;;;9.80;4.70;;;;;;;;;;5085197;28;20432;-71
2023/05/02 09:49:13;;;;;;;11.48;4.93;;;;;;;;;;5086355;28;20069;-71
2023/05/02 09:51:39;;;;;;;9.73;4.20;;;;;;;;;;5086731;28;20573;-71
2023/05/02 09:54:05;;;;;;;13.63;5.18;;;;;;;;;;5073754;28;20036;-71
2023/05/02 09:56:30;;;;;;;11.10;5.53;;;;;;;;;;5079296;28;20046;-71
2023/05/02 09:59:13;;;;;;;11.02;6.57;;;;;;;;;;5085254;28;20054;-72
2023/05/02 10:01:41;;;;;;;8.53;5.13;;;;;;;;;;5085243;28;20043;-72
2023/05/02 10:04:17;;;;;;;10.52;5.30;;;;;;;;;;5085029;28;20410;-71
2023/05/02 10:06:43;;;;;;;8.45;4.90;;;;;;;;;;5085280;28;20024;-70
2023/05/02 10:09:11;;;;;;;9.35;5.00;;;;;;;;;;5090015;28;20029;-70
2023/05/02 10:11:42;;;;;;;7.82;4.78;;;;;;;;;;5086056;28;20028;-71
2023/05/02 10:14:09;;;;;;;9.63;6.43;;;;;;;;;;5090454;28;20062;-71
2023/05/02 10:16:41;;;;;;;9.50;4.78;;;;;;;;;;5071492;28;20016;-70
2023/05/02 10:19:10;;;;;;;8.75;5.10;;;;;;;;;;5076617;28;20051;-70
2023/05/02 10:21:36;;;;;;;8.93;5.38;;;;;;;;;;5081821;28;20472;-70
2023/05/02 10:24:04;;;;;;;13.25;5.57;;;;;;;;;;5075613;28;20580;-70
2023/05/02 10:26:30;;;;;;;10.05;4.82;;;;;;;;;;5073686;28;20032;-70
2023/05/02 10:28:56;;;;;;;11.85;4.78;;;;;;;;;;5084224;28;20063;-70
2023/05/02 10:31:22;;;;;;;7.13;4.90;;;;;;;;;;5077788;28;20665;-70
2023/05/02 10:33:53;;;;;;;9.23;5.03;;;;;;;;;;5079087;28;20453;-70
2023/05/02 10:36:21;;;;;;;7.80;4.38;;;;;;;;;;5084734;28;20556;-70
2023/05/02 10:38:47;;;;;;;7.88;4.28;;;;;;;;;;5076782;28;20112;-70
2023/05/02 10:41:25;;;;;;;9.13;4.88;;;;;;;;;;5076999;28;20038;-70
2023/05/02 10:43:52;;;;;;;10.82;4.63;;;;;;;;;;5085625;28;20074;-70
2023/05/02 10:46:39;;;;;;;13.85;5.43;;;;;;;;;;5085209;28;20031;-70
2023/05/02 10:49:06;;;;;;;9.65;5.13;;;;;;;;;;5081709;28;20036;-70
2023/05/02 10:51:32;;;;;;;9.20;5.30;;;;;;;;;;5082793;28;20024;-70
2023/05/02 10:54:16;;;;;;;8.98;5.32;;;;;;;;;;5083335;28;20112;-70
2023/05/02 10:57:04;;;;;;;8.68;4.82;;;;;;;;;;5074608;28;20058;-70
2023/05/02 10:59:34;;;;;;;10.45;4.43;;;;;;;;;;5068342;28;20683;-70
2023/05/02 11:02:00;;;;;;;10.73;5.68;;;;;;;;;;5078700;28;20035;-70
2023/05/02 11:05:02;;;;;;;8.75;5.30;;;;;;;;;;5084361;28;20555;-70
2023/05/02 11:07:32;;;;;;;10.13;5.00;;;;;;;;;;5080647;28;20055;-70
2023/05/02 11:10:16;;;;;;;7.32;4.53;;;;;;;;;;5083116;28;20111;-70
2023/05/02 11:12:43;;;;;;;;;;;;;;;;;;5060770;28;21301;-70
2023/05/02 11:15:08;;;;;;;7.10;5.00;;;;;;;;;;5073266;28;19923;-70
2023/05/02 11:18:13;;;;;;;11.30;5.00;;;;;;;;;;5081846;28;20042;-70
2023/05/02 11:20:42;;;;;;;6.85;4.57;;;;;;;;;;5082097;28;20071;-70
2023/05/02 11:23:14;;;;;;;7.10;4.20;;;;;;;;;;5081858;28;20024;-70
2023/05/02 11:25:44;;;;;;;8.65;4.78;;;;;;;;;;5074751;28;21069;-70
2023/05/02 11:28:46;;;;;;;11.35;4.60;;;;;;;;;;5083683;28;20629;-70
2023/05/02 11:31:27;;;;;;;8.93;4.18;;;;;;;;;;5085005;28;20115;-70
2023/05/02 11:33:56;;;;;;;7.00;4.10;;;;;;;;;;5094028;28;20028;-70
2023/05/02 11:36:32;;;;;;;6.93;4.63;;;;;;;;;;5092649;28;20035;-70
2023/05/02 11:38:59;;;;;;;7.05;3.75;;;;;;;;;;5083822;28;20472;-69
2023/05/02 11:41:41;;;;;;;5.68;3.80;;;;;;;;;;5082176;28;20036;-70
2023/05/02 11:44:07;;;;;;;7.15;4.28;;;;;;;;;;5082424;28;20034;-71
2023/05/02 11:46:35;;;;;;;9.18;4.72;;;;;;;;;;5071065;28;20036;-71
2023/05/02 11:49:01;;;;;;;10.82;5.57;;;;;;;;;;5068602;28;20032;-71
2023/05/02 11:51:27;;;;;;;7.50;4.70;;;;;;;;;;5075142;28;20029;-70
2023/05/02 11:53:52;;;;;;;9.75;4.90;;;;;;;;;;5078111;28;20063;-70
2023/05/02 11:56:23;;;;;;;7.30;4.40;;;;;;;;;;5079233;28;20044;-70
2023/05/02 11:58:58;;;;;;;6.55;3.78;;;;;;;;;;5079489;28;20429;-70
2023/05/02 12:01:23;;;;;;;7.00;4.07;;;;;;;;;;5079461;28;20619;-70
2023/05/02 12:03:51;;;;;;;5.30;3.83;;;;;;;;;;5081224;28;20119;-70
2023/05/02 12:06:20;;;;;;;11.15;4.20;;;;;;;;;;5070808;28;20033;-70
2023/05/02 12:08:45;;;;;;;6.47;4.15;;;;;;;;;;5076108;28;20229;-70
2023/05/02 12:11:15;;;;;;;8.00;4.22;;;;;;;;;;5078244;28;20028;-70
2023/05/02 12:13:46;;;;;;;6.15;3.97;;;;;;;;;;5073371;28;20024;-70
2023/05/02 12:16:12;;;;;;;5.35;4.03;;;;;;;;;;5081822;28;20032;-70
2023/05/02 12:18:37;;;;;;;6.40;4.05;;;;;;;;;;5083863;28;20028;-70
2023/05/02 12:21:04;;;;;;;7.63;4.43;;;;;;;;;;5083714;28;20445;-70
2023/05/02 12:23:30;;;;;;;7.88;4.55;;;;;;;;;;5080222;28;20036;-70
2023/05/02 12:25:55;;;;;;;7.65;3.95;;;;;;;;;;5064372;28;20030;-70
2023/05/02 12:28:22;;;;;;;7.45;3.90;;;;;;;;;;5078526;28;20027;-70
2023/05/02 12:30:49;;;;;;;5.32;3.60;;;;;;;;;;5083620;28;20028;-70
2023/05/02 12:33:15;;;;;;;8.25;4.30;;;;;;;;;;5083545;28;20260;-70
2023/05/02 12:35:41;;;;;;;7.05;3.35;;;;;;;;;;5083894;28;20039;-70
2023/05/02 12:38:19;;;;;;;7.53;3.90;;;;;;;;;;5081876;28;20016;-70
2023/05/02 12:40:51;;;;;;;7.75;4.25;;;;;;;;;;5072825;28;20024;-70
2023/05/02 12:43:18;;;;;;;7.50;4.20;;;;;;;;;;5081116;28;20119;-70
2023/05/02 12:45:43;;;;;;;16.05;3.75;;;;;;;;;;5081642;28;20037;-70
2023/05/02 12:48:26;;;;;;;9.38;4.15;;;;;;;;;;5069307;28;20032;-71
2023/05/02 12:50:53;;;;;;;7.32;3.63;;;;;;;;;;5082706;28;20047;-70
2023/05/02 12:53:57;;;;;;;7.40;3.97;;;;;;;;;;5083509;28;20035;-70
2023/05/02 12:56:23;;;;;;;4.88;3.45;;;;;;;;;;5070157;28;20044;-70
2023/05/02 12:58:49;;;;;;;9.07;3.83;;;;;;;;;;5053099;28;20045;-70
2023/05/02 13:01:15;;;;;;;8.13;4.57;;;;;;;;;;5071615;28;20205;-70
2023/05/02 13:03:42;;;;;;;7.65;4.70;;;;;;;;;;5086177;28;20894;-70
2023/05/02 13:06:07;;;;;;;6.75;4.00;;;;;;;;;;5085617;28;20787;-70
2023/05/02 13:08:34;;;;;;;7.10;3.88;;;;;;;;;;5087344;28;20043;-70
2023/05/02 13:11:00;;;;;;;6.03;4.22;;;;;;;;;;5084094;28;20043;-70
2023/05/02 13:13:26;;;;;;;8.50;4.80;;;;;;;;;;5079438;28;20029;-70
2023/05/02 13:15:51;;;;;;;9.73;4.35;;;;;;;;;;5075292;28;20035;-70
2023/05/02 13:18:16;;;;;;;7.43;4.13;;;;;;;;;;5079584;28;20032;-70
2023/05/02 13:20:42;;;;;;;8.13;3.63;;;;;;;;;;5087137;28;20044;-70
2023/05/02 13:23:07;;;;;;;36.97;32.53;;;;;;;;;;5078043;28;20031;-70
2023/05/02 13:25:32;;;;;;;9.68;3.85;;;;;;;;;;5074706;28;20024;-70
2023/05/02 13:27:58;;;;;;;10.70;4.80;;;;;;;;;;5085630;28;20828;-70
2023/05/02 13:30:23;;;;;;;8.73;4.32;;;;;;;;;;5075442;28;20130;-70
2023/05/02 13:32:49;;;;;;;7.95;4.22;;;;;;;;;;5072041;28;20478;-70
2023/05/02 13:35:14;;;;;;;7.28;3.80;;;;;;;;;;5075172;28;20039;-70
2023/05/02 13:37:40;;;;;;;8.05;3.80;;;;;;;;;;5082752;28;20422;-69
2023/05/02 13:40:06;;;;;;;7.22;3.70;;;;;;;;;;5077106;28;20040;-68
2023/05/02 13:42:32;;;;;;;7.47;3.35;;;;;;;;;;5086013;28;20032;-68
2023/05/02 13:44:57;;;;;;;8.15;3.47;;;;;;;;;;5086469;28;20042;-69
2023/05/02 13:47:23;;;;;;;6.00;3.47;;;;;;;;;;5085375;28;20115;-69
2023/05/02 13:49:49;;;;;;;7.22;4.10;;;;;;;;;;5065921;28;20381;-69
2023/05/02 13:52:15;;;;;;;6.97;4.00;;;;;;;;;;5085514;28;20036;-69
2023/05/02 13:54:40;;;;;;;7.97;3.63;;;;;;;;;;5085984;28;20024;-69
2023/05/02 13:57:06;;;;;;;8.68;3.70;;;;;;;;;;5083046;28;20044;-69
2023/05/02 13:59:31;;;;;;;4.88;3.35;;;;;;;;;;5078492;28;20047;-69
2023/05/02 14:01:56;;;;;;;6.15;3.42;;;;;;;;;;5084661;28;20113;-69
2023/05/02 14:04:22;;;;;;;6.38;4.20;;;;;;;;;;5085481;28;20688;-68
2023/05/02 14:06:47;;;;;;;8.40;3.65;;;;;;;;;;5073538;28;20605;-70
2023/05/02 14:09:14;;;;;;;6.35;4.38;;;;;;;;;;5084194;28;20039;-70
2023/05/02 14:11:39;;;;;;;7.40;4.82;;;;;;;;;;5086237;28;20036;-70
2023/05/02 14:14:05;;;;;;;9.13;4.80;;;;;;;;;;5080307;28;20030;-70
2023/05/02 14:16:30;;;;;;;10.23;4.40;;;;;;;;;;5082003;28;20050;-70
2023/05/02 14:18:56;;;;;;;8.38;4.70;;;;;;;;;;5093296;28;20040;-69
2023/05/02 14:21:21;;;;;;;6.30;4.20;;;;;;;;;;5095153;28;20166;-69
2023/05/02 14:23:46;;;;;;;5.22;3.60;;;;;;;;;;5080569;28;20040;-69
2023/05/02 14:26:12;;;;;;;7.03;4.03;;;;;;;;;;5083163;28;20114;-70
2023/05/02 14:28:38;;;;;;;7.03;3.90;;;;;;;;;;5080858;28;20024;-70
2023/05/02 14:31:03;;;;;;;6.22;3.80;;;;;;;;;;5085773;28;20413;-70
2023/05/02 14:33:29;;;;;;;8.77;3.35;;;;;;;;;;5085380;28;20107;-69
2023/05/02 14:35:54;;;;;;;5.80;3.45;;;;;;;;;;5083970;28;20043;-69
2023/05/02 14:38:20;;;;;;;7.97;3.67;;;;;;;;;;5080225;28;20040;-69